Time;durP1;ratioP1;P1;durP2;ratioP2;P2;SDS_P1;SDS_P2;PMS_P1;PMS_P2;Temp;Humidity;BMP_temperature;BMP_pressure;BME280_temperature;BME280_humidity;BME280_pressure;Samples;Min_cycle;Max_cycle;Signal;HPM_P1;HPM_P2
2022/11/20 00:00:55;;;;;;;29.92;19.48;;;1.70;99.90;;;;;;4936362;28;20121;-63
2022/11/20 00:03:22;;;;;;;29.52;19.02;;;1.70;99.90;;;;;;4943351;28;20110;-63
2022/11/20 00:05:47;;;;;;;28.50;19.05;;;1.70;99.90;;;;;;4924107;28;20719;-63
2022/11/20 00:08:13;;;;;;;33.45;20.48;;;1.50;99.90;;;;;;4929440;28;20047;-63
2022/11/20 00:10:39;;;;;;;38.17;22.00;;;1.60;99.90;;;;;;4928639;28;20042;-62
2022/11/20 00:13:05;;;;;;;34.10;20.20;;;1.80;99.90;;;;;;4939538;28;20055;-63
2022/11/20 00:15:31;;;;;;;34.58;21.17;;;1.60;99.90;;;;;;4933467;28;20164;-62
2022/11/20 00:17:56;;;;;;;32.75;21.58;;;1.40;99.90;;;;;;4945801;28;20121;-62
2022/11/20 00:20:22;;;;;;;35.50;21.42;;;1.40;99.90;;;;;;4933321;28;20031;-61
2022/11/20 00:22:48;;;;;;;34.25;22.60;;;1.40;99.90;;;;;;4932582;28;20039;-62
2022/11/20 00:25:14;;;;;;;33.10;21.33;;;1.30;99.90;;;;;;4934993;28;20133;-61
2022/11/20 00:27:40;;;;;;;33.35;21.58;;;1.30;99.90;;;;;;4931557;28;20495;-61
2022/11/20 00:30:06;;;;;;;33.55;21.20;;;1.30;99.90;;;;;;4927595;28;20050;-62
2022/11/20 00:32:32;;;;;;;33.33;20.67;;;1.10;99.90;;;;;;4939481;28;20047;-61
2022/11/20 00:34:57;;;;;;;36.40;20.92;;;1.00;99.90;;;;;;4943301;28;20066;-62
2022/11/20 00:37:23;;;;;;;36.00;22.52;;;0.70;99.90;;;;;;4945801;28;20035;-61
2022/11/20 00:39:48;;;;;;;35.80;23.20;;;0.80;99.90;;;;;;4933516;28;20051;-61
2022/11/20 00:42:14;;;;;;;33.13;22.15;;;1.00;99.90;;;;;;4929246;28;20031;-62
2022/11/20 00:44:39;;;;;;;35.65;22.58;;;1.10;99.90;;;;;;4930302;28;20050;-61
2022/11/20 00:47:05;;;;;;;35.22;22.70;;;0.80;99.90;;;;;;4938809;28;20101;-62
2022/11/20 00:49:31;;;;;;;36.60;23.02;;;1.00;99.90;;;;;;4925363;28;20456;-62
2022/11/20 00:51:56;;;;;;;36.17;22.83;;;0.80;99.90;;;;;;4926317;28;20036;-62
2022/11/20 00:54:22;;;;;;;37.00;22.77;;;1.10;99.90;;;;;;4926289;28;20168;-61
2022/11/20 00:56:47;;;;;;;36.33;23.17;;;1.10;99.90;;;;;;4929980;28;20044;-61
2022/11/20 00:59:13;;;;;;;36.85;23.35;;;1.10;99.90;;;;;;4925338;28;20975;-61
2022/11/20 01:01:39;;;;;;;36.20;23.77;;;1.10;99.90;;;;;;4925848;28;20038;-61
2022/11/20 01:04:05;;;;;;;36.15;23.45;;;1.00;99.90;;;;;;4925700;28;20179;-61
2022/11/20 01:06:33;;;;;;;35.92;23.05;;;0.90;99.90;;;;;;4931549;28;20153;-60
2022/11/20 01:09:03;;;;;;;35.42;23.30;;;0.80;99.90;;;;;;4943075;28;20490;-61
2022/11/20 01:11:31;;;;;;;38.88;23.63;;;0.90;99.90;;;;;;4929354;28;20547;-61
2022/11/20 01:13:59;;;;;;;34.40;23.25;;;1.10;99.90;;;;;;4944907;28;20098;-61
2022/11/20 01:16:30;;;;;;;37.05;23.17;;;1.30;99.90;;;;;;4939753;28;20502;-61
2022/11/20 01:18:59;;;;;;;38.83;24.88;;;1.40;99.90;;;;;;4932433;28;20051;-62
2022/11/20 01:21:37;;;;;;;36.47;23.33;;;1.60;99.90;;;;;;4931287;28;20090;-61
2022/11/20 01:24:05;;;;;;;37.75;23.45;;;1.40;99.90;;;;;;4935019;28;20412;-61
2022/11/20 01:26:33;;;;;;;37.08;24.30;;;1.40;99.90;;;;;;4939680;28;20054;-61
2022/11/20 01:28:59;;;;;;;39.50;24.42;;;1.20;99.90;;;;;;4930564;28;20042;-61
2022/11/20 01:31:31;;;;;;;37.15;23.13;;;1.20;99.90;;;;;;4929142;28;21545;-61
2022/11/20 01:33:59;;;;;;;41.70;24.10;;;0.90;99.90;;;;;;4924884;28;20177;-61
2022/11/20 01:36:27;;;;;;;35.35;23.63;;;1.10;99.90;;;;;;4912708;29;20047;-61
2022/11/20 01:38:54;;;;;;;35.90;23.88;;;1.20;99.90;;;;;;4913084;29;20064;-60
2022/11/20 01:44:05;;;;;;;36.45;23.27;;;1.20;99.90;;;;;;4929798;28;20114;-61
2022/11/20 01:46:33;;;;;;;41.13;23.23;;;1.40;99.90;;;;;;4925893;28;20091;-62
2022/11/20 01:49:38;;;;;;;40.25;24.38;;;1.40;99.90;;;;;;4904174;29;20674;-61
2022/11/20 01:52:11;;;;;;;38.53;22.63;;;1.50;99.90;;;;;;4898617;29;20345;-60
2022/11/20 01:54:55;;;;;;;38.67;22.92;;;1.10;99.90;;;;;;4908252;29;20494;-61
2022/11/20 01:57:25;;;;;;;40.15;23.13;;;0.90;99.90;;;;;;4899264;28;20561;-61
2022/11/20 02:00:06;;;;;;;38.38;23.88;;;1.40;99.90;;;;;;4932680;28;20137;-61
2022/11/20 02:02:32;;;;;;;37.10;23.20;;;1.60;99.90;;;;;;4946097;28;20105;-61
2022/11/20 02:05:04;;;;;;;37.88;23.52;;;1.30;99.90;;;;;;4945989;28;20043;-61
2022/11/20 02:07:30;;;;;;;33.67;22.10;;;1.00;99.90;;;;;;4959007;28;20053;-61
2022/11/20 02:09:56;;;;;;;38.30;23.17;;;0.90;99.90;;;;;;4944499;28;20106;-61
2022/11/20 02:15:05;;;;;;;34.47;21.38;;;1.10;99.90;;;;;;4958316;28;20038;-61
2022/11/20 02:17:31;;;;;;;35.90;21.75;;;1.40;99.90;;;;;;4956247;28;20047;-61
2022/11/20 02:19:57;;;;;;;37.78;21.88;;;1.10;99.90;;;;;;4946162;28;20053;-61
2022/11/20 02:22:30;;;;;;;38.15;23.65;;;1.10;99.90;;;;;;4947336;28;20081;-61
2022/11/20 02:24:58;;;;;;;37.08;21.65;;;1.40;99.90;;;;;;4933298;28;20983;-62
2022/11/20 02:27:25;;;;;;;35.67;22.67;;;1.70;99.90;;;;;;4946445;28;20058;-60
2022/11/20 02:29:59;;;;;;;36.70;22.33;;;1.90;99.90;;;;;;4930044;28;21095;-61
2022/11/20 02:32:27;;;;;;;38.40;23.23;;;2.00;99.90;;;;;;4951622;28;20043;-60
2022/11/20 02:34:53;;;;;;;32.15;21.60;;;2.00;99.90;;;;;;4927136;28;20062;-61
2022/11/20 02:37:20;;;;;;;35.25;22.30;;;1.80;99.90;;;;;;4926206;28;20039;-60
2022/11/20 02:39:48;;;;;;;38.45;23.33;;;1.80;99.90;;;;;;4926554;28;20043;-62
2022/11/20 02:42:14;;;;;;;40.33;24.75;;;2.00;99.90;;;;;;4936380;28;20105;-61
2022/11/20 02:44:40;;;;;;;42.22;23.35;;;2.10;99.90;;;;;;4944536;28;21447;-61
2022/11/20 02:47:06;;;;;;;41.50;23.17;;;2.00;99.90;;;;;;4932389;28;20066;-61
2022/11/20 02:49:31;;;;;;;36.63;23.00;;;1.70;99.90;;;;;;4939206;28;20075;-62
2022/11/20 02:51:57;;;;;;;34.20;22.58;;;1.80;99.90;;;;;;4933094;28;20121;-61
2022/11/20 02:54:23;;;;;;;35.55;21.73;;;1.90;99.90;;;;;;4923579;28;20062;-62
2022/11/20 02:56:49;;;;;;;33.65;22.35;;;1.90;99.90;;;;;;4927078;28;20697;-61
2022/11/20 02:59:14;;;;;;;35.50;21.73;;;1.80;99.90;;;;;;4925625;28;20035;-61
2022/11/20 03:01:40;;;;;;;34.97;21.02;;;1.80;99.90;;;;;;4933685;28;22039;-62
2022/11/20 03:04:05;;;;;;;38.33;22.83;;;1.80;99.90;;;;;;4928633;28;20039;-61
2022/11/20 03:06:31;;;;;;;37.47;22.98;;;1.90;99.90;;;;;;4941369;28;20063;-61
2022/11/20 03:08:57;;;;;;;38.53;23.15;;;1.80;99.90;;;;;;4933394;28;20035;-61
2022/11/20 03:11:23;;;;;;;38.60;23.60;;;1.80;99.90;;;;;;4925043;28;20796;-61
2022/11/20 03:13:49;;;;;;;36.60;21.98;;;1.60;99.90;;;;;;4934727;28;20518;-61
2022/11/20 03:16:17;;;;;;;38.67;22.58;;;1.40;99.90;;;;;;4939885;28;20138;-60
2022/11/20 03:18:43;;;;;;;37.80;23.13;;;1.50;99.90;;;;;;4924380;28;20106;-61
2022/11/20 03:21:10;;;;;;;34.83;22.85;;;1.50;99.90;;;;;;4937542;28;20039;-62
2022/11/20 03:23:37;;;;;;;34.17;22.08;;;1.50;99.90;;;;;;4941726;28;20453;-62
2022/11/20 03:26:09;;;;;;;35.53;21.85;;;1.60;99.90;;;;;;4936118;28;20035;-61
2022/11/20 03:28:35;;;;;;;36.08;23.33;;;1.10;99.90;;;;;;4925529;28;20035;-61
2022/11/20 03:31:13;;;;;;;39.13;23.45;;;1.30;99.90;;;;;;4929247;28;20054;-62
2022/11/20 03:33:40;;;;;;;37.22;23.60;;;1.60;99.90;;;;;;4927633;28;20787;-62
2022/11/20 03:36:13;;;;;;;38.45;23.70;;;1.80;99.90;;;;;;4924858;28;20183;-61
2022/11/20 03:38:40;;;;;;;36.67;23.92;;;2.10;99.90;;;;;;4946248;28;20046;-61
2022/11/20 03:41:09;;;;;;;36.88;22.90;;;2.00;99.90;;;;;;4940253;28;20035;-61
2022/11/20 03:43:35;;;;;;;39.03;24.35;;;1.50;99.90;;;;;;4924665;28;20053;-61
2022/11/20 03:46:01;;;;;;;35.72;23.38;;;1.60;99.90;;;;;;4946041;28;20038;-61
2022/11/20 03:48:27;;;;;;;41.70;23.20;;;1.60;99.90;;;;;;4935355;28;20050;-61
2022/11/20 03:51:05;;;;;;;41.88;24.05;;;1.60;99.90;;;;;;4928695;28;20039;-61
2022/11/20 03:53:31;;;;;;;35.90;23.75;;;1.80;99.90;;;;;;4929407;28;20141;-62
2022/11/20 03:55:56;;;;;;;37.90;23.92;;;2.00;99.90;;;;;;4948184;28;20790;-61
2022/11/20 03:58:22;;;;;;;39.00;24.67;;;1.90;99.90;;;;;;4932722;28;20512;-61
2022/11/20 04:00:47;;;;;;;39.67;24.25;;;2.20;99.90;;;;;;4924823;28;20043;-62
2022/11/20 04:03:13;;;;;;;38.63;25.23;;;2.20;99.90;;;;;;4927869;28;20047;-61
2022/11/20 04:05:39;;;;;;;39.47;25.95;;;2.40;99.90;;;;;;4928916;28;20066;-61
2022/11/20 04:08:04;;;;;;;37.55;23.80;;;2.50;99.90;;;;;;4931738;28;20101;-62
2022/11/20 04:10:30;;;;;;;40.92;24.38;;;2.50;99.90;;;;;;4928944;28;20050;-61
2022/11/20 04:12:56;;;;;;;39.17;24.58;;;2.50;99.90;;;;;;4948153;28;20145;-62
2022/11/20 04:15:21;;;;;;;37.92;24.02;;;2.30;99.90;;;;;;4927066;28;20578;-61
2022/11/20 04:17:47;;;;;;;36.58;24.77;;;2.40;99.90;;;;;;4934238;28;20943;-62
2022/11/20 04:20:12;;;;;;;39.45;23.50;;;2.20;99.90;;;;;;4923663;28;20716;-61
2022/11/20 04:22:38;;;;;;;36.65;23.55;;;1.90;99.90;;;;;;4924961;28;20107;-61
2022/11/20 04:25:04;;;;;;;36.40;23.30;;;1.70;99.90;;;;;;4928722;28;20027;-62
2022/11/20 04:27:30;;;;;;;40.47;23.95;;;1.60;99.90;;;;;;4928903;28;20035;-61
2022/11/20 04:29:56;;;;;;;33.08;22.58;;;1.70;99.90;;;;;;4945773;28;20174;-62
2022/11/20 04:32:21;;;;;;;40.13;23.42;;;1.80;99.90;;;;;;4923245;28;20055;-62
2022/11/20 04:34:47;;;;;;;36.15;23.33;;;1.80;99.90;;;;;;4926340;28;20415;-62
2022/11/20 04:37:13;;;;;;;39.63;22.92;;;1.80;99.90;;;;;;4933376;28;20031;-60
2022/11/20 04:39:38;;;;;;;37.35;23.30;;;1.80;99.90;;;;;;4926386;28;20073;-62
2022/11/20 04:44:48;;;;;;;34.83;21.98;;;1.60;99.90;;;;;;4931701;28;20058;-61
2022/11/20 04:47:13;;;;;;;35.22;21.60;;;1.20;99.90;;;;;;4941759;28;20114;-61
2022/11/20 04:49:39;;;;;;;36.78;21.55;;;1.00;99.90;;;;;;4948616;28;20039;-61
2022/11/20 04:52:05;;;;;;;34.67;22.23;;;1.50;99.90;;;;;;4941261;28;20047;-61
2022/11/20 04:54:30;;;;;;;35.38;21.70;;;1.70;99.90;;;;;;4928954;28;20078;-62
2022/11/20 04:56:56;;;;;;;37.22;21.77;;;1.70;99.90;;;;;;4930414;28;20038;-62
2022/11/20 04:59:22;;;;;;;33.72;22.17;;;1.80;99.90;;;;;;4937227;28;20198;-62
2022/11/20 05:01:47;;;;;;;35.42;22.00;;;2.00;99.90;;;;;;4936932;28;20073;-62
2022/11/20 05:04:13;;;;;;;36.45;21.30;;;1.90;99.90;;;;;;4944050;28;20094;-61
2022/11/20 05:06:38;;;;;;;34.72;21.73;;;1.60;99.90;;;;;;4927522;28;20040;-61
2022/11/20 05:09:04;;;;;;;30.35;19.80;;;1.50;99.90;;;;;;4927590;28;20141;-61
2022/11/20 05:11:31;;;;;;;33.67;21.40;;;1.30;99.90;;;;;;4928697;28;21693;-62
2022/11/20 05:13:59;;;;;;;33.00;21.17;;;1.30;99.90;;;;;;4941054;28;20039;-61
2022/11/20 05:16:24;;;;;;;31.25;20.00;;;1.20;99.90;;;;;;4928414;28;20384;-61
2022/11/20 05:18:51;;;;;;;34.25;20.63;;;1.20;99.90;;;;;;4935472;28;20059;-62
2022/11/20 05:21:17;;;;;;;31.70;20.63;;;1.20;99.90;;;;;;4928808;28;20099;-61
2022/11/20 05:23:44;;;;;;;31.73;20.50;;;1.40;99.90;;;;;;4937602;28;20039;-62
2022/11/20 05:26:18;;;;;;;31.30;20.02;;;1.40;99.90;;;;;;4926635;28;20150;-61
2022/11/20 05:28:44;;;;;;;34.35;20.02;;;1.50;99.90;;;;;;4927440;28;20138;-61
2022/11/20 05:31:15;;;;;;;34.25;21.90;;;1.50;99.90;;;;;;4927365;28;20129;-61
2022/11/20 05:33:43;;;;;;;35.10;21.00;;;1.60;99.90;;;;;;4932223;28;20043;-61
2022/11/20 05:36:10;;;;;;;32.33;20.92;;;1.80;99.90;;;;;;4939216;28;20059;-60
2022/11/20 05:38:35;;;;;;;32.45;21.13;;;2.10;99.90;;;;;;4934911;28;20039;-62
2022/11/20 05:41:06;;;;;;;30.52;19.73;;;2.00;99.90;;;;;;4927400;28;20503;-62
2022/11/20 05:43:33;;;;;;;32.58;19.77;;;1.60;99.90;;;;;;4938785;28;20091;-62
2022/11/20 05:45:59;;;;;;;33.42;21.15;;;1.90;99.90;;;;;;4928515;28;20138;-61
2022/11/20 05:48:25;;;;;;;30.92;20.58;;;2.10;99.90;;;;;;4927421;28;22257;-61
2022/11/20 05:50:50;;;;;;;32.88;20.75;;;1.90;99.90;;;;;;4931212;28;20065;-61
2022/11/20 05:53:16;;;;;;;34.15;21.45;;;2.00;99.90;;;;;;4948734;28;20031;-61
2022/11/20 05:55:42;;;;;;;30.88;19.75;;;2.30;99.90;;;;;;4927557;28;20035;-62
2022/11/20 05:58:07;;;;;;;31.75;21.10;;;2.10;99.90;;;;;;4930485;28;20492;-61
2022/11/20 06:00:33;;;;;;;34.85;21.88;;;2.10;99.90;;;;;;4927138;28;20039;-62
2022/11/20 06:02:58;;;;;;;34.28;21.80;;;2.40;99.90;;;;;;4914720;29;20043;-63
2022/11/20 06:05:24;;;;;;;33.53;21.67;;;2.60;99.90;;;;;;4927819;28;20166;-61
2022/11/20 06:07:49;;;;;;;36.72;22.35;;;2.60;99.90;;;;;;4927699;28;20031;-62
2022/11/20 06:10:15;;;;;;;33.70;20.90;;;2.70;99.90;;;;;;4942383;28;20108;-61
2022/11/20 06:12:40;;;;;;;32.67;21.00;;;2.40;99.90;;;;;;4929753;28;20189;-63
2022/11/20 06:15:06;;;;;;;32.00;20.88;;;2.70;99.90;;;;;;4932700;28;20045;-62
2022/11/20 06:17:32;;;;;;;34.78;21.25;;;2.70;99.90;;;;;;4927950;28;20110;-62
2022/11/20 06:19:57;;;;;;;34.15;22.33;;;2.40;99.90;;;;;;4933421;28;20047;-63
2022/11/20 06:22:23;;;;;;;32.38;20.55;;;2.30;99.90;;;;;;4925881;28;20046;-61
2022/11/20 06:24:49;;;;;;;34.35;20.70;;;2.50;99.90;;;;;;4926462;28;20031;-62
2022/11/20 06:27:14;;;;;;;31.65;21.48;;;2.60;99.90;;;;;;4948984;28;20783;-61
2022/11/20 06:29:40;;;;;;;34.35;21.55;;;2.60;99.90;;;;;;4930277;28;20043;-62
2022/11/20 06:32:06;;;;;;;32.85;21.05;;;2.70;99.90;;;;;;4932988;28;20047;-63
2022/11/20 06:34:31;;;;;;;33.42;21.08;;;2.60;99.90;;;;;;4929131;28;20047;-62
2022/11/20 06:36:57;;;;;;;34.03;21.10;;;2.60;99.90;;;;;;4927173;28;20043;-62
2022/11/20 06:39:22;;;;;;;33.38;21.27;;;2.80;99.90;;;;;;4924704;28;20344;-62
2022/11/20 06:41:48;;;;;;;32.58;20.95;;;2.70;99.90;;;;;;4928277;28;20037;-62
2022/11/20 06:44:14;;;;;;;30.98;20.95;;;;;;;;;;4943450;28;20039;-63
2022/11/20 06:46:39;;;;;;;34.28;21.25;;;2.90;99.90;;;;;;4936721;28;20036;-62
2022/11/20 06:49:05;;;;;;;32.45;21.23;;;3.00;99.90;;;;;;4924156;28;20046;-62
2022/11/20 06:51:31;;;;;;;33.88;19.60;;;2.80;99.90;;;;;;4929767;28;20061;-63
2022/11/20 06:53:57;;;;;;;34.72;20.90;;;2.70;99.90;;;;;;4936615;28;20035;-63
2022/11/20 06:56:23;;;;;;;32.95;21.10;;;2.70;99.90;;;;;;4948880;28;20028;-62
2022/11/20 06:58:48;;;;;;;36.25;21.45;;;2.90;99.90;;;;;;4925970;28;20129;-62
2022/11/20 07:01:14;;;;;;;34.95;21.10;;;2.80;99.90;;;;;;4940235;28;20031;-62
2022/11/20 07:03:41;;;;;;;32.05;21.52;;;2.80;99.90;;;;;;4933756;28;20051;-62
2022/11/20 07:06:07;;;;;;;30.75;20.33;;;2.70;99.90;;;;;;4927930;28;20534;-62
2022/11/20 07:08:33;;;;;;;31.58;21.25;;;2.80;99.90;;;;;;4931359;28;20035;-62
2022/11/20 07:11:00;;;;;;;31.25;20.13;;;2.80;99.90;;;;;;4928354;28;20125;-62
2022/11/20 07:13:27;;;;;;;33.17;21.23;;;2.80;99.90;;;;;;4943551;28;20023;-62
2022/11/20 07:15:53;;;;;;;33.72;21.42;;;2.70;99.90;;;;;;4931635;28;20035;-62
2022/11/20 07:18:19;;;;;;;34.25;21.30;;;2.80;99.90;;;;;;4945924;28;20523;-63
2022/11/20 07:20:45;;;;;;;33.03;21.73;;;2.60;99.90;;;;;;4939513;28;20752;-62
2022/11/20 07:23:10;;;;;;;32.33;20.50;;;2.60;99.90;;;;;;4926210;28;20468;-63
2022/11/20 07:25:36;;;;;;;32.63;21.80;;;2.70;99.90;;;;;;4925489;28;20728;-63
2022/11/20 07:28:01;;;;;;;39.72;22.48;;;2.80;99.90;;;;;;4928753;28;20138;-62
2022/11/20 07:30:30;;;;;;;33.60;22.52;;;2.80;99.90;;;;;;4927794;28;20122;-62
2022/11/20 07:32:56;;;;;;;33.10;22.00;;;2.80;99.90;;;;;;4925662;28;20149;-63
2022/11/20 07:35:23;;;;;;;33.15;22.00;;;2.80;99.90;;;;;;4939230;28;20114;-62
2022/11/20 07:37:48;;;;;;;32.78;22.05;;;2.80;99.90;;;;;;4928546;28;20507;-62
2022/11/20 07:40:15;;;;;;;35.20;21.67;;;2.80;99.90;;;;;;4928225;28;20047;-62
2022/11/20 07:42:48;;;;;;;37.10;22.35;;;2.90;99.90;;;;;;4930900;28;20153;-63
2022/11/20 07:45:14;;;;;;;31.63;21.17;;;2.80;99.90;;;;;;4928272;28;20153;-62
2022/11/20 07:47:39;;;;;;;31.85;21.50;;;2.90;99.90;;;;;;4925059;28;20047;-63
2022/11/20 07:50:05;;;;;;;36.55;24.05;;;3.00;99.90;;;;;;4927682;28;20144;-63
2022/11/20 07:52:31;;;;;;;33.17;21.83;;;2.90;99.90;;;;;;4942235;28;20047;-63
2022/11/20 07:54:56;;;;;;;33.65;21.83;;;2.90;99.90;;;;;;4928788;28;20130;-62
2022/11/20 07:57:22;;;;;;;35.75;23.23;;;2.80;99.90;;;;;;4936151;28;20234;-62
2022/11/20 07:59:47;;;;;;;34.88;22.33;;;2.80;99.90;;;;;;4942779;28;20038;-63
2022/11/20 08:02:13;;;;;;;40.60;23.35;;;2.90;99.90;;;;;;4926203;28;20106;-64
2022/11/20 08:04:38;;;;;;;35.47;23.30;;;3.10;99.90;;;;;;4924102;28;20399;-63
2022/11/20 08:07:04;;;;;;;39.42;23.17;;;2.60;99.90;;;;;;4927391;28;21077;-62
2022/11/20 08:09:29;;;;;;;35.53;22.67;;;2.80;99.90;;;;;;4943094;28;22105;-62
2022/11/20 08:14:39;;;;;;;36.05;22.52;;;2.90;99.90;;;;;;4933077;28;20038;-63
2022/11/20 08:17:05;;;;;;;32.10;21.75;;;2.90;99.90;;;;;;4927010;28;20608;-64
2022/11/20 08:19:30;;;;;;;34.30;22.25;;;2.80;99.90;;;;;;4928237;28;20047;-64
2022/11/20 08:21:56;;;;;;;64.85;23.45;;;2.60;99.90;;;;;;4938112;28;20081;-64
2022/11/20 08:24:21;;;;;;;38.88;23.10;;;2.80;99.90;;;;;;4934984;28;20063;-63
2022/11/20 08:26:47;;;;;;;32.92;21.45;;;3.10;99.90;;;;;;4941280;28;20078;-63
2022/11/20 08:29:12;;;;;;;29.65;21.35;;;2.90;99.90;;;;;;4927477;28;20119;-63
2022/11/20 08:31:38;;;;;;;33.55;22.02;;;3.00;99.90;;;;;;4929095;28;20043;-62
2022/11/20 08:34:04;;;;;;;34.17;22.73;;;3.20;99.90;;;;;;4927475;28;20098;-63
2022/11/20 08:36:33;;;;;;;29.73;21.42;;;3.20;99.90;;;;;;4932891;28;20042;-62
2022/11/20 08:38:58;;;;;;;33.50;22.50;;;3.20;99.90;;;;;;4930160;28;20062;-63
2022/11/20 08:41:25;;;;;;;33.78;22.20;;;3.20;99.90;;;;;;4936466;28;20043;-62
2022/11/20 08:43:52;;;;;;;38.70;22.00;;;3.40;99.90;;;;;;4935773;28;20056;-63
2022/11/20 08:46:18;;;;;;;33.83;22.30;;;3.70;99.90;;;;;;4939914;28;20054;-62
2022/11/20 08:48:44;;;;;;;37.75;24.25;;;3.70;99.90;;;;;;4928473;28;20409;-63
2022/11/20 08:51:10;;;;;;;39.92;23.60;;;3.70;99.90;;;;;;4933568;28;20126;-63
2022/11/20 08:53:36;;;;;;;36.55;23.58;;;3.80;99.90;;;;;;4931014;28;21343;-63
2022/11/20 08:56:01;;;;;;;37.40;24.08;;;3.90;99.90;;;;;;4931666;28;20031;-64
2022/11/20 08:58:27;;;;;;;36.20;22.33;;;3.90;99.90;;;;;;4944625;28;20039;-63
2022/11/20 09:00:53;;;;;;;34.70;23.17;;;3.70;99.90;;;;;;4933822;28;21296;-62
2022/11/20 09:03:19;;;;;;;34.38;22.63;;;3.70;99.90;;;;;;4940088;28;20141;-62
2022/11/20 09:05:44;;;;;;;32.67;22.58;;;3.80;99.90;;;;;;4931456;28;20055;-62
2022/11/20 09:08:10;;;;;;;36.35;22.50;;;3.90;99.90;;;;;;4941573;28;20031;-63
2022/11/20 09:10:36;;;;;;;35.28;22.58;;;4.20;99.90;;;;;;4938140;28;20035;-63
2022/11/20 09:13:02;;;;;;;35.90;23.88;;;4.40;99.90;;;;;;4930395;28;20051;-63
2022/11/20 09:15:28;;;;;;;36.58;24.05;;;4.30;99.90;;;;;;4930328;28;20031;-63
2022/11/20 09:17:58;;;;;;;43.78;26.20;;;4.30;99.90;;;;;;4933796;28;20039;-63
2022/11/20 09:28:06;;;;;;;37.20;25.15;;;4.10;99.90;;;;;;4915696;28;20051;-62
2022/11/20 09:30:32;;;;;;;38.47;25.90;;;4.30;99.90;;;;;;4909549;28;20032;-62
2022/11/20 09:32:57;;;;;;;35.75;25.75;;;4.40;99.90;;;;;;4941425;28;20040;-62
2022/11/20 09:35:23;;;;;;;38.30;25.88;;;4.40;99.90;;;;;;4914963;28;20494;-61
2022/11/20 09:37:49;;;;;;;39.92;25.45;;;4.50;99.90;;;;;;4908822;28;20557;-62
2022/11/20 09:40:21;;;;;;;49.58;28.60;;;4.70;99.90;;;;;;4909895;28;20068;-62
2022/11/20 09:42:54;;;;;;;40.08;27.75;;;4.80;99.90;;;;;;4907297;28;20067;-62
2022/11/20 09:45:24;;;;;;;41.95;26.42;;;4.70;99.90;;;;;;4911656;28;20507;-62
2022/11/20 09:48:14;;;;;;;40.85;26.60;;;4.50;99.90;;;;;;4910272;28;20059;-61
2022/11/20 09:50:49;;;;;;;42.75;26.50;;;4.70;99.90;;;;;;4932062;28;20039;-62
2022/11/20 09:53:45;;;;;;;37.85;24.80;;;5.10;99.90;;;;;;4940264;28;20032;-62
2022/11/20 09:56:11;;;;;;;40.75;25.58;;;5.10;99.90;;;;;;4923021;28;20490;-62
2022/11/20 09:58:50;;;;;;;40.58;25.20;;;5.20;99.90;;;;;;4926914;28;20121;-62
2022/11/20 10:01:35;;;;;;;38.33;23.65;;;5.20;99.90;;;;;;4915666;28;20507;-63
2022/11/20 10:04:16;;;;;;;41.58;24.85;;;5.20;99.90;;;;;;4920989;28;20036;-61
2022/11/20 10:07:04;;;;;;;40.75;24.80;;;5.40;99.90;;;;;;4944175;28;20084;-63
2022/11/20 10:09:37;;;;;;;36.75;22.83;;;5.30;99.90;;;;;;4922357;28;20771;-61
2022/11/20 10:12:12;;;;;;;;;;;5.10;99.90;;;;;;4906400;28;20047;-61
2022/11/20 10:14:50;;;;;;;34.30;22.67;;;5.20;99.90;;;;;;4911166;28;19926;-61
2022/11/20 10:17:27;;;;;;;45.22;23.83;;;5.50;99.90;;;;;;4911348;28;20170;-62
2022/11/20 10:20:20;;;;;;;35.25;23.00;;;5.60;99.90;;;;;;4909015;28;20046;-61
2022/11/20 10:23:13;;;;;;;36.78;23.77;;;5.60;99.90;;;;;;4917880;28;20051;-61
2022/11/20 10:25:55;;;;;;;36.08;23.60;;;5.50;99.90;;;;;;4915918;28;20388;-61
2022/11/20 10:28:44;;;;;;;37.13;23.70;;;5.50;99.90;;;;;;4944307;28;21013;-61
2022/11/20 10:31:41;;;;;;;36.70;23.35;;;5.40;99.90;;;;;;4942963;28;20039;-61
2022/11/20 10:34:19;;;;;;;42.20;25.52;;;5.40;99.90;;;;;;4944463;28;20497;-61
2022/11/20 10:36:54;;;;;;;41.03;24.85;;;5.60;99.90;;;;;;4959898;28;20039;-62
2022/11/20 10:39:52;;;;;;;43.28;24.60;;;5.60;99.90;;;;;;4953350;28;20031;-62
2022/11/20 10:42:42;;;;;;;47.55;28.48;;;5.70;99.90;;;;;;4957981;28;20469;-62
2022/11/20 10:45:26;;;;;;;45.88;26.08;;;5.60;99.90;;;;;;4942547;28;20051;-62
2022/11/20 10:48:07;;;;;;;41.75;23.80;;;5.30;99.90;;;;;;4942928;28;20476;-62
2022/11/20 10:50:37;;;;;;;41.45;23.20;;;5.20;99.90;;;;;;4943530;28;20441;-62
2022/11/20 10:53:16;;;;;;;45.83;25.02;;;5.20;99.90;;;;;;4945830;28;20460;-62
2022/11/20 10:55:58;;;;;;;43.55;23.63;;;5.10;99.90;;;;;;4952348;28;20050;-62
2022/11/20 10:58:40;;;;;;;40.33;23.05;;;5.10;99.90;;;;;;4946287;28;20035;-62
2022/11/20 11:01:18;;;;;;;43.38;23.35;;;5.00;99.90;;;;;;4948678;28;20060;-62
2022/11/20 11:03:44;;;;;;;44.30;23.67;;;5.30;99.90;;;;;;4945466;28;20039;-63
2022/11/20 11:06:20;;;;;;;44.20;24.73;;;5.30;99.90;;;;;;4949655;28;20491;-62
2022/11/20 11:08:49;;;;;;;45.45;24.58;;;5.50;99.90;;;;;;4957903;28;20470;-63
2022/11/20 11:11:23;;;;;;;46.67;25.67;;;5.70;99.90;;;;;;4946300;28;20046;-62
2022/11/20 11:13:49;;;;;;;44.30;24.17;;;5.70;99.90;;;;;;4959901;28;20023;-62
2022/11/20 11:16:23;;;;;;;44.10;24.15;;;5.40;99.90;;;;;;4946884;28;20038;-62
2022/11/20 11:18:49;;;;;;;44.92;23.42;;;5.40;99.90;;;;;;4942458;28;20035;-62
2022/11/20 11:21:22;;;;;;;43.75;23.60;;;5.40;99.90;;;;;;4954035;28;20034;-60
2022/11/20 11:23:57;;;;;;;42.53;24.20;;;5.30;99.90;;;;;;4952355;28;20042;-60
2022/11/20 11:26:24;;;;;;;45.08;24.42;;;5.50;99.90;;;;;;4946982;28;20046;-61
2022/11/20 11:29:04;;;;;;;46.83;24.60;;;5.70;99.90;;;;;;4948221;28;20134;-61
2022/11/20 11:31:32;;;;;;;47.75;25.58;;;5.80;99.90;;;;;;4953832;28;20077;-61
2022/11/20 11:34:10;;;;;;;46.55;25.73;;;5.70;99.90;;;;;;4943983;28;20402;-61
2022/11/20 11:36:36;;;;;;;45.85;25.55;;;5.60;99.90;;;;;;4948245;28;20321;-61
2022/11/20 11:39:05;;;;;;;44.38;24.20;;;5.80;99.90;;;;;;4945282;28;20039;-62
2022/11/20 11:41:35;;;;;;;45.70;23.48;;;5.70;99.90;;;;;;4942682;28;21797;-62
2022/11/20 11:47:09;;;;;;;43.80;24.17;;;5.90;99.90;;;;;;4956729;28;20296;-61
2022/11/20 11:49:35;;;;;;;43.13;23.55;;;5.90;99.90;;;;;;4944762;28;20069;-61
2022/11/20 11:52:19;;;;;;;43.42;23.20;;;6.10;99.90;;;;;;4947527;28;20050;-61
2022/11/20 11:54:59;;;;;;;42.35;24.50;;;5.90;99.90;;;;;;4949064;28;20516;-62
2022/11/20 11:57:43;;;;;;;40.50;22.83;;;6.10;99.90;;;;;;4953601;28;20584;-61
2022/11/20 12:00:16;;;;;;;39.92;23.35;;;6.10;99.90;;;;;;4948082;28;20031;-61
2022/11/20 12:02:44;;;;;;;;;;;6.10;99.90;;;;;;4965935;28;20589;-61
2022/11/20 12:05:13;;;;;;;39.92;22.95;;;6.30;99.90;;;;;;4958591;28;19923;-62
2022/11/20 12:07:42;;;;;;;45.42;24.20;;;6.40;99.90;;;;;;4946089;28;20063;-62
2022/11/20 12:10:37;;;;;;;41.60;23.92;;;6.20;99.90;;;;;;4954692;28;20089;-62
2022/11/20 12:13:22;;;;;;;39.13;22.90;;;6.20;99.90;;;;;;4948341;28;20046;-62
2022/11/20 12:15:49;;;;;;;38.25;22.05;;;6.20;99.90;;;;;;4949989;28;20047;-62
2022/11/20 12:18:18;;;;;;;36.42;22.27;;;6.40;99.90;;;;;;4946841;28;20085;-62
2022/11/20 12:20:59;;;;;;;35.75;21.40;;;6.50;99.90;;;;;;4968024;28;20059;-61
2022/11/20 12:23:40;;;;;;;37.75;22.15;;;6.50;99.90;;;;;;4951234;28;20075;-62
2022/11/20 12:26:38;;;;;;;36.45;20.85;;;6.60;99.90;;;;;;4953293;28;20101;-62
2022/11/20 12:29:12;;;;;;;32.90;20.00;;;6.60;99.90;;;;;;4944431;28;20046;-62
2022/11/20 12:32:07;;;;;;;34.60;19.95;;;6.60;99.90;;;;;;4945857;28;20137;-62
2022/11/20 12:34:45;;;;;;;35.05;21.08;;;6.50;99.90;;;;;;4950628;28;20038;-62
2022/11/20 12:37:31;;;;;;;32.45;20.65;;;6.40;99.90;;;;;;4962010;28;20069;-62
2022/11/20 12:40:07;;;;;;;42.45;23.33;;;6.40;99.90;;;;;;4952325;28;20046;-62
2022/11/20 12:45:54;;;;;;;36.40;22.85;;;6.40;99.90;;;;;;4940999;28;20049;-62
2022/11/20 12:48:59;;;;;;;33.97;21.67;;;6.20;99.90;;;;;;4942563;28;20482;-62
2022/11/20 12:51:34;;;;;;;33.20;20.27;;;6.50;99.90;;;;;;4925368;28;22235;-62
2022/11/20 12:54:17;;;;;;;32.95;19.80;;;6.40;99.90;;;;;;4969545;28;20035;-62
2022/11/20 12:57:19;;;;;;;33.40;20.33;;;6.40;99.90;;;;;;4943852;28;20053;-62
2022/11/20 13:00:04;;;;;;;33.42;21.02;;;6.30;99.90;;;;;;4948030;28;20723;-62
2022/11/20 13:02:48;;;;;;;34.22;21.42;;;6.30;99.90;;;;;;4945462;28;20609;-63
2022/11/20 13:05:31;;;;;;;34.67;21.02;;;6.50;99.90;;;;;;4948403;28;20510;-64
2022/11/20 13:07:57;;;;;;;36.58;22.30;;;6.60;99.90;;;;;;4945248;28;20050;-63
2022/11/20 13:11:02;;;;;;;36.78;22.95;;;6.50;99.90;;;;;;4958645;28;20056;-63
2022/11/20 13:13:52;;;;;;;35.42;21.10;;;6.20;99.90;;;;;;4952269;28;20362;-62
2022/11/20 13:16:51;;;;;;;38.80;22.27;;;6.20;99.90;;;;;;4946016;28;20031;-62